createdAt,value
2018-02-05T00:00:20.668Z,-0.70
2018-02-05T00:02:49.024Z,-0.70
2018-02-05T00:05:17.348Z,-0.80
2018-02-05T00:07:45.659Z,-0.80
2018-02-05T00:10:13.996Z,-0.90
2018-02-05T00:12:42.323Z,-0.80
2018-02-05T00:15:10.676Z,-0.90
2018-02-05T00:17:38.989Z,-0.80
2018-02-05T00:20:07.331Z,-0.80
2018-02-05T00:22:35.648Z,-0.90
2018-02-05T00:25:03.992Z,-1.00
2018-02-05T00:27:32.312Z,-1.10
2018-02-05T00:30:00.643Z,-1.00
2018-02-05T00:32:28.960Z,-1.10
2018-02-05T00:34:57.300Z,-1.10
2018-02-05T00:37:25.613Z,-1.10
2018-02-05T00:39:53.999Z,-1.10
2018-02-05T00:42:22.328Z,-1.00
2018-02-05T00:44:50.643Z,-1.10
2018-02-05T00:47:18.988Z,-1.10
2018-02-05T00:49:47.306Z,-1.10
2018-02-05T00:52:15.640Z,-1.10
2018-02-05T00:54:43.988Z,-1.10
2018-02-05T00:57:13.093Z,-1.10
2018-02-05T00:59:42.236Z,-1.10
2018-02-05T01:02:10.577Z,-1.10
2018-02-05T01:04:38.912Z,-1.00
2018-02-05T01:07:07.252Z,-1.00
2018-02-05T01:09:36.352Z,-1.10
2018-02-05T01:12:04.691Z,-1.10
2018-02-05T01:14:33.022Z,-1.20
2018-02-05T01:17:01.361Z,-1.20
2018-02-05T01:19:30.441Z,-1.30
2018-02-05T01:21:58.806Z,-1.30
2018-02-05T01:24:27.225Z,-1.30
2018-02-05T01:26:55.582Z,-1.30
2018-02-05T01:29:23.924Z,-1.20
2018-02-05T01:31:52.249Z,-1.20
2018-02-05T01:34:20.604Z,-1.20
2018-02-05T01:36:48.924Z,-1.20
2018-02-05T01:39:17.276Z,-1.30
2018-02-05T01:41:45.592Z,-1.30
2018-02-05T01:44:13.944Z,-1.20
2018-02-05T01:46:43.032Z,-1.30
2018-02-05T01:49:11.471Z,-1.30
2018-02-05T01:51:39.788Z,-1.30
2018-02-05T01:54:08.905Z,-1.30
2018-02-05T01:56:37.988Z,-1.30
2018-02-05T01:59:06.326Z,-1.30
2018-02-05T02:01:34.645Z,-1.40
2018-02-05T02:04:02.974Z,-1.40
2018-02-05T02:06:31.289Z,-1.40
2018-02-05T02:08:59.639Z,-1.40
2018-02-05T02:11:27.962Z,-1.30
2018-02-05T02:13:57.039Z,-1.40
2018-02-05T02:16:25.381Z,-1.40
2018-02-05T02:18:53.703Z,-1.40
2018-02-05T02:21:22.047Z,-1.40
2018-02-05T02:23:50.370Z,-1.40
2018-02-05T02:26:19.471Z,-1.40
2018-02-05T02:28:48.554Z,-1.40
2018-02-05T02:31:16.902Z,-1.30
2018-02-05T02:33:45.233Z,-1.40
2018-02-05T02:36:13.577Z,-1.40
2018-02-05T02:38:41.887Z,-1.40
2018-02-05T02:41:10.996Z,-1.40
2018-02-05T02:43:39.316Z,-1.40
2018-02-05T02:46:07.656Z,-1.40
2018-02-05T02:48:35.991Z,-1.30
2018-02-05T02:51:04.322Z,-1.40
2018-02-05T02:53:32.636Z,-1.50
2018-02-05T02:56:00.973Z,-1.40
2018-02-05T02:58:29.293Z,-1.50
2018-02-05T03:00:57.629Z,-1.40
2018-02-05T03:03:25.989Z,-1.50
2018-02-05T03:05:55.097Z,-1.60
2018-02-05T03:08:24.176Z,-1.60
2018-02-05T03:10:53.288Z,-1.70
2018-02-05T03:13:21.604Z,-1.70
2018-02-05T03:15:49.981Z,-1.70
2018-02-05T03:18:18.300Z,-1.80
2018-02-05T03:20:46.615Z,-1.80
2018-02-05T03:23:14.965Z,-1.90
2018-02-05T03:25:43.284Z,-2.00
2018-02-05T03:28:11.625Z,-2.00
2018-02-05T03:30:40.845Z,-2.00
2018-02-05T03:33:09.221Z,-2.00
2018-02-05T03:35:37.590Z,-1.90
2018-02-05T03:38:05.946Z,-1.80
2018-02-05T03:40:35.036Z,-1.90
2018-02-05T03:43:03.380Z,-2.00
2018-02-05T03:45:31.708Z,-1.90
2018-02-05T03:48:00.045Z,-2.00
2018-02-05T03:50:28.357Z,-2.20
2018-02-05T03:52:56.685Z,-2.30
2018-02-05T03:55:24.986Z,-2.40
2018-02-05T03:57:53.318Z,-2.40
2018-02-05T04:00:21.724Z,-2.50
2018-02-05T04:02:51.093Z,-2.50
2018-02-05T04:05:19.405Z,-2.40
2018-02-05T04:07:47.743Z,-2.40
2018-02-05T04:10:16.819Z,-2.50
2018-02-05T04:12:45.163Z,-2.50
2018-02-05T04:15:13.472Z,-2.50
2018-02-05T04:17:41.839Z,-2.50
2018-02-05T04:20:10.160Z,-2.50
2018-02-05T04:22:42.630Z,-2.60
2018-02-05T04:25:11.706Z,-2.60
2018-02-05T04:27:40.018Z,-2.60
2018-02-05T04:30:08.355Z,-2.80
2018-02-05T04:32:36.652Z,-2.70
2018-02-05T04:35:04.991Z,-2.70
2018-02-05T04:37:51.676Z,-2.70
2018-02-05T04:40:20.003Z,-2.80
2018-02-05T04:42:48.306Z,-2.80
2018-02-05T04:45:17.407Z,-3.10
2018-02-05T04:47:46.472Z,-3.30
2018-02-05T04:50:14.794Z,-3.30
2018-02-05T04:52:43.111Z,-3.20
2018-02-05T04:55:11.444Z,-3.20
2018-02-05T04:57:40.516Z,-3.30
2018-02-05T05:00:08.846Z,-3.30
2018-02-05T05:03:02.385Z,-3.40
2018-02-05T05:05:31.480Z,-3.50
2018-02-05T05:08:00.550Z,-3.50
2018-02-05T05:10:28.883Z,-3.50
2018-02-05T05:12:57.199Z,-3.40
2018-02-05T05:15:25.523Z,-3.50
2018-02-05T05:17:53.827Z,-3.60
2018-02-05T05:20:22.151Z,-3.60
2018-02-05T05:22:51.233Z,-3.50
2018-02-05T05:25:19.556Z,-3.60
2018-02-05T05:27:47.879Z,-3.50
2018-02-05T05:30:16.207Z,-3.60
2018-02-05T05:32:44.512Z,-3.60
2018-02-05T05:35:12.886Z,-3.70
2018-02-05T05:37:41.201Z,-3.70
2018-02-05T05:40:09.503Z,-3.80
2018-02-05T05:42:38.604Z,-4.00
2018-02-05T05:45:07.670Z,-4.00
2018-02-05T05:47:36.000Z,-4.00
2018-02-05T05:50:04.321Z,-4.10
2018-02-05T05:52:32.652Z,-4.20
2018-02-05T05:55:00.960Z,-4.10
2018-02-05T05:57:29.292Z,-4.20
2018-02-05T05:59:58.361Z,-4.60
2018-02-05T06:02:26.704Z,-4.60
2018-02-05T06:04:55.013Z,-4.60
2018-02-05T06:07:23.339Z,-4.50
2018-02-05T06:09:51.647Z,-4.30
2018-02-05T06:12:19.979Z,-4.30
2018-02-05T06:14:49.063Z,-4.00
2018-02-05T06:17:17.391Z,-4.00
2018-02-05T06:19:45.701Z,-3.60
2018-02-05T06:22:14.038Z,-3.90
2018-02-05T06:24:42.347Z,-4.00
2018-02-05T06:27:10.716Z,-4.30
2018-02-05T06:29:39.023Z,-4.40
2018-02-05T06:32:07.323Z,-4.40
2018-02-05T06:34:36.423Z,-4.50
2018-02-05T06:37:04.743Z,-4.60
2018-02-05T06:39:33.072Z,-4.60
2018-02-05T06:42:02.142Z,-4.40
2018-02-05T06:44:30.474Z,-4.40
2018-02-05T06:46:58.793Z,-4.40
2018-02-05T06:49:27.114Z,-4.40
2018-02-05T06:52:07.282Z,-4.70
2018-02-05T06:54:47.373Z,-4.90
2018-02-05T06:57:15.694Z,-5.10
2018-02-05T06:59:44.788Z,-5.10
2018-02-05T07:02:13.096Z,-5.10
2018-02-05T07:04:42.202Z,-4.90
2018-02-05T07:07:10.531Z,-4.90
2018-02-05T07:09:39.654Z,-4.90
2018-02-05T07:12:07.963Z,-4.90
2018-02-05T07:14:36.295Z,-4.90
2018-02-05T07:17:05.377Z,-4.70
2018-02-05T07:19:33.707Z,-4.70
2018-02-05T07:22:02.015Z,-4.60
2018-02-05T07:24:30.362Z,-4.50
2018-02-05T07:26:58.680Z,-4.40
2018-02-05T07:29:26.990Z,-4.40
2018-02-05T07:31:56.087Z,-4.20
2018-02-05T07:34:24.403Z,-4.20
2018-02-05T07:36:52.734Z,-4.00
2018-02-05T07:39:21.823Z,-3.80
2018-02-05T07:41:50.156Z,-3.80
2018-02-05T07:44:18.464Z,-3.60
2018-02-05T07:46:46.795Z,-3.70
2018-02-05T07:49:15.106Z,-3.60
2018-02-05T07:51:43.430Z,-3.40
2018-02-05T07:54:12.524Z,-3.40
2018-02-05T07:56:41.621Z,-3.30
2018-02-05T07:59:10.693Z,-3.10
2018-02-05T08:01:39.049Z,-3.10
2018-02-05T08:04:07.356Z,-3.00
2018-02-05T08:06:35.687Z,-2.90
2018-02-05T08:09:04.000Z,-2.90
2018-02-05T08:11:32.338Z,-2.70
2018-02-05T08:14:00.657Z,-2.60
2018-02-05T08:16:28.982Z,-2.50
2018-02-05T08:18:57.292Z,-2.50
2018-02-05T08:21:25.644Z,-2.30
2018-02-05T08:23:53.947Z,-2.30
2018-02-05T08:26:22.283Z,-2.20
2018-02-05T08:28:51.371Z,-2.10
2018-02-05T08:31:20.497Z,-2.00
2018-02-05T08:34:03.378Z,-2.00
2018-02-05T08:36:32.496Z,-1.90
2018-02-05T08:39:01.572Z,-1.80
2018-02-05T08:41:30.666Z,-1.80
2018-02-05T08:43:59.049Z,-1.80
2018-02-05T08:46:27.346Z,-1.70
2018-02-05T08:48:55.707Z,-1.60
2018-02-05T08:51:24.009Z,-1.50
2018-02-05T08:53:52.336Z,-1.30
2018-02-05T08:56:20.630Z,-1.50
2018-02-05T08:58:48.951Z,-1.50
2018-02-05T09:01:17.251Z,-1.50
2018-02-05T09:03:45.575Z,-1.40
2018-02-05T09:06:13.879Z,-1.30
2018-02-05T09:08:42.216Z,-1.20
2018-02-05T09:11:10.529Z,-1.20
2018-02-05T09:13:39.611Z,-1.10
2018-02-05T09:16:08.681Z,-1.30
2018-02-05T09:18:37.049Z,-1.30
2018-02-05T09:21:05.336Z,-1.10
2018-02-05T09:23:33.680Z,-1.30
2018-02-05T09:26:01.987Z,-1.30
2018-02-05T09:28:30.315Z,-1.10
2018-02-05T09:31:02.297Z,-1.00
2018-02-05T09:33:30.627Z,-0.80
2018-02-05T09:35:58.935Z,-0.90
2018-02-05T09:38:28.019Z,0.10
2018-02-05T09:40:57.085Z,0.30
2018-02-05T09:43:25.378Z,0.30
2018-02-05T09:45:53.704Z,0.10
2018-02-05T09:48:22.015Z,0.00
2018-02-05T09:50:50.340Z,0.10
2018-02-05T09:53:19.403Z,0.20
2018-02-05T09:55:47.727Z,0.10
2018-02-05T09:58:16.046Z,-0.10
2018-02-05T10:00:44.376Z,0.20
2018-02-05T10:03:12.687Z,0.20
2018-02-05T10:05:41.016Z,0.40
2018-02-05T10:08:10.097Z,1.00
2018-02-05T10:10:38.452Z,1.00
2018-02-05T10:13:06.774Z,0.60
2018-02-05T10:15:35.151Z,0.40
2018-02-05T10:18:04.275Z,0.50
2018-02-05T10:20:32.777Z,0.50
2018-02-05T10:23:01.265Z,0.50
2018-02-05T10:25:29.709Z,0.40
2018-02-05T10:27:58.126Z,0.50
2018-02-05T10:30:26.496Z,0.50
2018-02-05T10:32:54.884Z,0.50
2018-02-05T10:35:23.265Z,0.20
2018-02-05T10:37:51.639Z,0.40
2018-02-05T10:40:20.014Z,0.70
2018-02-05T10:42:48.372Z,1.50
2018-02-05T10:45:16.732Z,1.20
2018-02-05T10:47:45.867Z,0.60
2018-02-05T10:50:14.206Z,0.60
2018-02-05T10:52:42.578Z,0.60
2018-02-05T10:55:10.931Z,0.90
2018-02-05T10:57:39.276Z,0.60
2018-02-05T11:00:07.610Z,0.60
2018-02-05T11:02:35.937Z,0.90
2018-02-05T11:05:04.281Z,1.10
2018-02-05T11:07:32.602Z,0.80
2018-02-05T11:10:00.952Z,0.90
2018-02-05T11:12:29.294Z,0.90
2018-02-05T11:14:57.642Z,1.10
2018-02-05T11:17:25.963Z,1.00
2018-02-05T11:19:54.293Z,1.00
2018-02-05T11:22:22.609Z,0.90
2018-02-05T11:24:50.945Z,1.20
2018-02-05T11:27:19.278Z,1.00
2018-02-05T11:29:47.614Z,1.30
2018-02-05T11:32:15.940Z,1.30
2018-02-05T11:34:45.081Z,1.00
2018-02-05T11:37:13.405Z,1.00
2018-02-05T11:39:41.707Z,1.10
2018-02-05T11:42:10.071Z,1.10
2018-02-05T11:44:38.400Z,0.80
2018-02-05T11:47:06.725Z,1.00
2018-02-05T11:49:35.036Z,1.30
2018-02-05T11:52:03.376Z,1.00
2018-02-05T11:54:31.677Z,0.90
2018-02-05T11:57:00.785Z,0.80
2018-02-05T11:59:29.091Z,0.80
2018-02-05T12:01:57.419Z,1.30
2018-02-05T12:04:26.489Z,0.80
2018-02-05T12:06:54.811Z,0.80
2018-02-05T12:09:23.140Z,0.80
2018-02-05T12:11:51.473Z,0.90
2018-02-05T12:14:19.788Z,0.90
2018-02-05T12:16:48.118Z,0.80
2018-02-05T12:19:17.183Z,1.10
2018-02-05T12:21:45.505Z,1.10
2018-02-05T12:24:13.815Z,1.10
2018-02-05T12:26:42.135Z,1.00
2018-02-05T12:29:10.427Z,1.40
2018-02-05T12:31:38.762Z,1.30
2018-02-05T12:34:08.691Z,1.10
2018-02-05T12:36:37.071Z,1.10
2018-02-05T12:39:05.366Z,1.10
2018-02-05T12:41:34.443Z,1.00
2018-02-05T12:44:02.776Z,1.00
2018-02-05T12:46:31.123Z,1.30
2018-02-05T12:48:59.459Z,1.30
2018-02-05T12:51:27.772Z,1.20
2018-02-05T12:53:56.875Z,1.40
2018-02-05T12:56:25.952Z,1.60
2018-02-05T12:58:54.284Z,1.60
2018-02-05T13:01:25.127Z,1.70
2018-02-05T13:06:58.308Z,1.50
2018-02-05T13:09:27.391Z,1.70
2018-02-05T13:11:56.471Z,1.40
2018-02-05T13:14:24.795Z,1.40
2018-02-05T13:16:53.103Z,1.40
2018-02-05T13:19:21.418Z,1.40
2018-02-05T13:21:49.715Z,1.40
2018-02-05T13:24:18.803Z,1.40
2018-02-05T13:26:47.872Z,1.30
2018-02-05T13:29:16.193Z,1.20
2018-02-05T13:31:44.503Z,1.50
2018-02-05T13:34:29.396Z,1.40
2018-02-05T13:36:57.698Z,1.40
2018-02-05T13:39:26.791Z,1.50
2018-02-05T13:41:55.082Z,1.40
2018-02-05T13:44:23.471Z,1.30
2018-02-05T13:46:51.767Z,1.40
2018-02-05T13:49:20.063Z,1.30
2018-02-05T13:51:48.387Z,1.30
2018-02-05T13:54:17.448Z,1.40
2018-02-05T13:56:45.773Z,1.40
2018-02-05T13:59:14.842Z,1.40
2018-02-05T14:01:43.163Z,1.30
2018-02-05T14:04:11.797Z,1.40
2018-02-05T14:06:40.107Z,1.40
2018-02-05T14:09:09.175Z,1.50
2018-02-05T14:11:37.512Z,1.50
2018-02-05T14:14:05.812Z,1.40
2018-02-05T14:16:34.128Z,1.60
2018-02-05T14:19:04.853Z,1.50
2018-02-05T14:21:33.163Z,1.50
2018-02-05T14:24:01.465Z,1.50
2018-02-05T14:26:29.831Z,1.50
2018-02-05T14:28:58.134Z,1.40
2018-02-05T14:31:26.443Z,1.30
2018-02-05T14:33:54.782Z,1.40
2018-02-05T14:36:23.084Z,1.40
2018-02-05T14:38:51.398Z,1.40
2018-02-05T14:41:20.462Z,1.50
2018-02-05T14:43:50.312Z,1.60
2018-02-05T14:46:18.624Z,1.40
2018-02-05T14:48:46.945Z,1.30
2018-02-05T14:51:15.252Z,1.40
2018-02-05T14:53:43.571Z,1.20
2018-02-05T14:56:11.867Z,1.20
2018-02-05T14:58:40.184Z,1.30
2018-02-05T15:01:08.484Z,1.20
2018-02-05T15:03:36.798Z,1.10
2018-02-05T15:06:05.103Z,1.00
2018-02-05T15:08:34.212Z,1.00
2018-02-05T15:11:02.521Z,1.00
2018-02-05T15:13:30.845Z,1.00
2018-02-05T15:15:59.145Z,1.10
2018-02-05T15:18:28.222Z,0.90
2018-02-05T15:20:57.312Z,0.90
2018-02-05T15:23:25.617Z,0.90
2018-02-05T15:25:53.953Z,0.80
2018-02-05T15:28:22.251Z,0.70
2018-02-05T15:30:50.572Z,0.80
2018-02-05T15:33:18.866Z,0.70
2018-02-05T15:35:47.199Z,0.60
2018-02-05T15:38:16.262Z,0.40
2018-02-05T15:40:44.587Z,0.40
2018-02-05T15:43:12.886Z,0.50
2018-02-05T15:45:41.190Z,0.30
2018-02-05T15:48:09.487Z,0.20
2018-02-05T15:50:37.818Z,0.20
2018-02-05T15:53:06.130Z,0.30
2018-02-05T15:55:34.463Z,0.30
2018-02-05T15:58:02.768Z,0.20
2018-02-05T16:00:31.099Z,0.10
2018-02-05T16:03:00.199Z,0.00
2018-02-05T16:05:29.264Z,0.00
2018-02-05T16:07:57.585Z,0.00
2018-02-05T16:10:25.893Z,-0.10
2018-02-05T16:12:54.214Z,-0.10
2018-02-05T16:15:23.279Z,-0.20
2018-02-05T16:17:51.598Z,-0.20
2018-02-05T16:20:20.677Z,-0.30
2018-02-05T16:22:48.998Z,-0.40
2018-02-05T16:25:17.307Z,-0.40
2018-02-05T16:27:45.633Z,-0.50
2018-02-05T16:30:14.702Z,-0.50
2018-02-05T16:32:43.037Z,-0.50
2018-02-05T16:35:11.343Z,-0.50
2018-02-05T16:37:39.683Z,-0.60
2018-02-05T16:40:07.994Z,-0.60
2018-02-05T16:42:36.307Z,-0.60
2018-02-05T16:45:05.380Z,-0.80
2018-02-05T16:47:33.704Z,-0.80
2018-02-05T16:50:02.045Z,-0.70
2018-02-05T16:52:30.369Z,-0.80
2018-02-05T16:54:58.669Z,-0.90
2018-02-05T16:57:26.996Z,-1.00
2018-02-05T16:59:56.059Z,-1.00
2018-02-05T17:02:24.409Z,-1.00
2018-02-05T17:04:53.474Z,-1.00
2018-02-05T17:07:22.559Z,-1.10
2018-02-05T17:09:51.628Z,-1.10
2018-02-05T17:12:19.959Z,-1.10
2018-02-05T17:14:48.333Z,-1.10
2018-02-05T17:17:16.707Z,-1.20
2018-02-05T17:19:45.135Z,-1.20
2018-02-05T17:22:13.536Z,-1.20
2018-02-05T17:24:41.934Z,-1.30
2018-02-05T17:27:11.095Z,-1.30
2018-02-05T17:29:39.513Z,-1.30
2018-02-05T17:32:08.676Z,-1.40
2018-02-05T17:34:37.204Z,-1.40
2018-02-05T17:37:05.603Z,-1.40
2018-02-05T17:39:34.067Z,-1.40
2018-02-05T17:42:03.256Z,-1.40
2018-02-05T17:44:35.423Z,-1.40
2018-02-05T17:47:03.800Z,-1.40
2018-02-05T17:49:32.314Z,-1.50
2018-02-05T17:52:00.669Z,-1.50
2018-02-05T17:54:29.092Z,-1.60
2018-02-05T17:56:57.496Z,-1.60
2018-02-05T17:59:25.943Z,-1.60
2018-02-05T18:01:54.373Z,-1.60
2018-02-05T18:04:23.539Z,-1.70
2018-02-05T18:07:11.595Z,-1.70
2018-02-05T18:09:40.006Z,-1.70
2018-02-05T18:12:08.384Z,-1.60
2018-02-05T18:14:37.573Z,-1.80
2018-02-05T18:17:06.722Z,-1.80
2018-02-05T18:19:35.126Z,-1.80
2018-02-05T18:22:03.494Z,-1.70
2018-02-05T18:24:31.873Z,-1.80
2018-02-05T18:27:00.313Z,-1.80
2018-02-05T18:29:29.468Z,-1.90
2018-02-05T18:31:58.001Z,-1.90
2018-02-05T18:34:26.405Z,-1.90
2018-02-05T18:36:55.565Z,-2.10
2018-02-05T18:39:24.714Z,-2.10
2018-02-05T18:41:55.055Z,-2.10
2018-02-05T18:44:23.651Z,-2.20
2018-02-05T18:46:52.739Z,-2.20
2018-02-05T18:49:22.112Z,-2.30
2018-02-05T18:51:50.790Z,-2.30
2018-02-05T18:54:19.281Z,-2.30
2018-02-05T18:56:47.698Z,-2.30
2018-02-05T18:59:16.866Z,-2.30
2018-02-05T19:01:45.273Z,-2.30
2018-02-05T19:04:14.622Z,-2.30
2018-02-05T19:06:42.994Z,-2.30
2018-02-05T19:09:11.408Z,-2.30
2018-02-05T19:11:39.822Z,-2.40
2018-02-05T19:14:11.815Z,-2.40
2018-02-05T19:16:40.226Z,-2.40
2018-02-05T19:19:08.646Z,-2.30
2018-02-05T19:21:36.956Z,-2.40
2018-02-05T19:24:07.073Z,-2.40
2018-02-05T19:26:36.233Z,-2.40
2018-02-05T19:29:04.687Z,-2.40
2018-02-05T19:31:33.068Z,-2.40
2018-02-05T19:34:01.464Z,-2.50
2018-02-05T19:36:29.841Z,-2.50
2018-02-05T19:38:59.282Z,-2.50
2018-02-05T19:41:28.448Z,-2.60
2018-02-05T19:43:56.851Z,-2.60
2018-02-05T19:46:25.230Z,-2.60
2018-02-05T19:48:53.629Z,-2.70
2018-02-05T19:51:22.822Z,-2.60
2018-02-05T19:53:51.961Z,-2.70
2018-02-05T19:56:21.065Z,-2.70
2018-02-05T19:58:49.451Z,-2.70
2018-02-05T20:01:17.777Z,-2.70
2018-02-05T20:03:46.954Z,-2.70
2018-02-05T20:06:15.333Z,-2.70
2018-02-05T20:08:44.486Z,-2.60
2018-02-05T20:11:12.900Z,-2.60
2018-02-05T20:13:41.269Z,-2.60
2018-02-05T20:16:09.724Z,-2.70
2018-02-05T20:18:38.106Z,-2.60
2018-02-05T20:21:06.584Z,-2.60
2018-02-05T20:23:34.976Z,-2.70
2018-02-05T20:26:03.426Z,-2.70
2018-02-05T20:28:31.856Z,-2.60
2018-02-05T20:31:01.049Z,-2.70
2018-02-05T20:33:29.434Z,-2.70
2018-02-05T20:35:57.810Z,-2.60
2018-02-05T20:38:26.193Z,-2.60
2018-02-05T20:40:54.635Z,-2.70
2018-02-05T20:43:23.023Z,-2.60
2018-02-05T20:45:51.389Z,-2.60
2018-02-05T20:48:19.779Z,-2.60
2018-02-05T20:50:48.167Z,-2.70
2018-02-05T20:53:16.547Z,-2.70
2018-02-05T20:55:44.927Z,-2.70
2018-02-05T20:58:14.114Z,-2.70
2018-02-05T21:00:42.594Z,-2.80
2018-02-05T21:03:11.011Z,-2.80
2018-02-05T21:05:39.498Z,-2.80
2018-02-05T21:08:07.873Z,-2.80
2018-02-05T21:10:36.301Z,-2.90
2018-02-05T21:13:05.437Z,-2.80
2018-02-05T21:15:33.873Z,-2.80
2018-02-05T21:18:03.030Z,-2.90
2018-02-05T21:20:31.433Z,-2.90
2018-02-05T21:22:59.823Z,-2.90
2018-02-05T21:25:29.011Z,-2.90
2018-02-05T21:27:57.407Z,-2.90
2018-02-05T21:30:25.785Z,-3.00
2018-02-05T21:32:54.902Z,-3.00
2018-02-05T21:35:24.040Z,-3.10
2018-02-05T21:37:52.410Z,-3.10
2018-02-05T21:40:23.747Z,-3.10
2018-02-05T21:42:52.108Z,-3.10
2018-02-05T21:45:21.256Z,-3.00
2018-02-05T21:47:49.709Z,-3.10
2018-02-05T21:50:18.173Z,-3.10
2018-02-05T21:52:46.532Z,-3.10
2018-02-05T21:55:14.941Z,-3.10
2018-02-05T21:57:43.322Z,-3.10
2018-02-05T22:00:11.636Z,-3.20
2018-02-05T22:02:40.065Z,-3.20
2018-02-05T22:05:08.431Z,-3.20
2018-02-05T22:07:36.858Z,-3.30
2018-02-05T22:10:05.277Z,-3.30
2018-02-05T22:12:34.932Z,-3.30
2018-02-05T22:15:03.311Z,-3.20
2018-02-05T22:17:31.713Z,-3.30
2018-02-05T22:20:00.071Z,-3.30
2018-02-05T22:22:28.428Z,-3.30
2018-02-05T22:24:56.826Z,-3.30
2018-02-05T22:27:25.988Z,-3.20
2018-02-05T22:29:55.112Z,-3.20
2018-02-05T22:32:23.471Z,-3.20
2018-02-05T22:34:52.632Z,-3.20
2018-02-05T22:37:21.001Z,-3.20
2018-02-05T22:39:49.359Z,-3.20
2018-02-05T22:42:17.724Z,-3.20
2018-02-05T22:44:46.949Z,-3.20
2018-02-05T22:47:15.341Z,-3.20
2018-02-05T22:49:43.723Z,-3.20
2018-02-05T22:52:13.004Z,-3.30
2018-02-05T22:54:41.393Z,-3.20
2018-02-05T22:57:09.736Z,-3.30
2018-02-05T22:59:38.140Z,-3.30
2018-02-05T23:02:16.179Z,-3.30
2018-02-05T23:04:44.640Z,-3.30
2018-02-05T23:07:12.986Z,-3.30
2018-02-05T23:09:41.357Z,-3.30
2018-02-05T23:12:09.762Z,-3.30
2018-02-05T23:14:38.094Z,-3.30
2018-02-05T23:17:06.405Z,-3.30
2018-02-05T23:19:35.500Z,-3.20
2018-02-05T23:22:04.573Z,-3.20
2018-02-05T23:24:32.904Z,-3.20
2018-02-05T23:27:01.979Z,-3.10
2018-02-05T23:29:30.312Z,-3.10
2018-02-05T23:31:58.620Z,-3.10
2018-02-05T23:34:27.728Z,-3.00
2018-02-05T23:36:56.035Z,-3.00
2018-02-05T23:39:24.371Z,-3.00
2018-02-05T23:41:52.724Z,-3.00
2018-02-05T23:44:21.026Z,-3.00
2018-02-05T23:46:50.116Z,-3.10
2018-02-05T23:49:19.200Z,-3.10
2018-02-05T23:51:47.576Z,-3.10
2018-02-05T23:54:15.884Z,-3.10
2018-02-05T23:56:44.977Z,-3.20
2018-02-05T23:59:14.048Z,-3.20
